sensor_id;sensor_type;location;lat;lon;timestamp;P1;durP1;ratioP1;P2;durP2;ratioP2
13733;SDS011;43298;52.560;13.508;2022-08-01T00:01:55;16.20;;;15.50;;
13733;SDS011;43298;52.560;13.508;2022-08-01T00:04:20;15.52;;;14.82;;
13733;SDS011;43298;52.560;13.508;2022-08-01T00:06:46;16.70;;;16.00;;
13733;SDS011;43298;52.560;13.508;2022-08-01T00:09:12;16.75;;;16.05;;
13733;SDS011;43298;52.560;13.508;2022-08-01T00:11:38;15.52;;;14.82;;
13733;SDS011;43298;52.560;13.508;2022-08-01T00:14:03;16.27;;;15.57;;
13733;SDS011;43298;52.560;13.508;2022-08-01T00:16:29;17.52;;;16.65;;
13733;SDS011;43298;52.560;13.508;2022-08-01T00:18:55;16.17;;;15.48;;
13733;SDS011;43298;52.560;13.508;2022-08-01T00:21:21;18.10;;;17.35;;
13733;SDS011;43298;52.560;13.508;2022-08-01T00:23:47;19.42;;;18.58;;
13733;SDS011;43298;52.560;13.508;2022-08-01T00:26:13;22.20;;;21.27;;
13733;SDS011;43298;52.560;13.508;2022-08-01T00:28:39;24.20;;;23.15;;
13733;SDS011;43298;52.560;13.508;2022-08-01T00:31:05;24.13;;;22.90;;
13733;SDS011;43298;52.560;13.508;2022-08-01T00:33:32;27.45;;;26.27;;
13733;SDS011;43298;52.560;13.508;2022-08-01T00:35:58;23.27;;;22.27;;
13733;SDS011;43298;52.560;13.508;2022-08-01T00:38:23;19.98;;;19.08;;
13733;SDS011;43298;52.560;13.508;2022-08-01T00:40:49;17.85;;;17.05;;
13733;SDS011;43298;52.560;13.508;2022-08-01T00:43:15;16.33;;;15.63;;
13733;SDS011;43298;52.560;13.508;2022-08-01T00:45:42;16.38;;;15.55;;
13733;SDS011;43298;52.560;13.508;2022-08-01T00:48:08;14.20;;;13.60;;
13733;SDS011;43298;52.560;13.508;2022-08-01T00:50:33;15.30;;;14.60;;
13733;SDS011;43298;52.560;13.508;2022-08-01T00:53:00;15.80;;;15.10;;
13733;SDS011;43298;52.560;13.508;2022-08-01T00:55:27;15.68;;;14.98;;
13733;SDS011;43298;52.560;13.508;2022-08-01T00:57:53;16.27;;;15.57;;
13733;SDS011;43298;52.560;13.508;2022-08-01T01:00:20;18.42;;;17.60;;
13733;SDS011;43298;52.560;13.508;2022-08-01T01:02:46;21.27;;;20.27;;
13733;SDS011;43298;52.560;13.508;2022-08-01T01:05:12;17.98;;;17.10;;
13733;SDS011;43298;52.560;13.508;2022-08-01T01:15:55;15.10;;;14.38;;
13733;SDS011;43298;52.560;13.508;2022-08-01T01:26:17;15.75;;;15.05;;
13733;SDS011;43298;52.560;13.508;2022-08-01T01:34:47;11.63;;;11.13;;
13733;SDS011;43298;52.560;13.508;2022-08-01T01:37:20;13.88;;;13.27;;
13733;SDS011;43298;52.560;13.508;2022-08-01T01:39:50;17.15;;;16.45;;
13733;SDS011;43298;52.560;13.508;2022-08-01T01:42:18;16.45;;;15.68;;
13733;SDS011;43298;52.560;13.508;2022-08-01T01:44:45;12.50;;;11.98;;
13733;SDS011;43298;52.560;13.508;2022-08-01T01:47:13;13.02;;;12.13;;
13733;SDS011;43298;52.560;13.508;2022-08-01T01:49:41;11.77;;;11.27;;
13733;SDS011;43298;52.560;13.508;2022-08-01T01:52:12;10.55;;;10.13;;
13733;SDS011;43298;52.560;13.508;2022-08-01T01:54:42;11.20;;;10.60;;
13733;SDS011;43298;52.560;13.508;2022-08-01T01:57:12;11.50;;;11.00;;
13733;SDS011;43298;52.560;13.508;2022-08-01T01:59:39;11.38;;;10.88;;
13733;SDS011;43298;52.560;13.508;2022-08-01T02:02:07;14.25;;;13.55;;
13733;SDS011;43298;52.560;13.508;2022-08-01T02:04:38;13.13;;;12.50;;
13733;SDS011;43298;52.560;13.508;2022-08-01T02:07:09;14.18;;;13.52;;
13733;SDS011;43298;52.560;13.508;2022-08-01T02:09:40;14.02;;;13.35;;
13733;SDS011;43298;52.560;13.508;2022-08-01T02:12:09;16.67;;;15.10;;
13733;SDS011;43298;52.560;13.508;2022-08-01T02:14:37;13.32;;;12.73;;
13733;SDS011;43298;52.560;13.508;2022-08-01T02:17:06;13.32;;;12.73;;
13733;SDS011;43298;52.560;13.508;2022-08-01T02:19:36;13.40;;;12.75;;
13733;SDS011;43298;52.560;13.508;2022-08-01T02:22:14;16.13;;;15.40;;
13733;SDS011;43298;52.560;13.508;2022-08-01T02:25:03;17.85;;;17.05;;
13733;SDS011;43298;52.560;13.508;2022-08-01T02:28:06;14.00;;;13.35;;
13733;SDS011;43298;52.560;13.508;2022-08-01T02:30:39;14.63;;;13.95;;
13733;SDS011;43298;52.560;13.508;2022-08-01T02:33:16;13.82;;;13.23;;
13733;SDS011;43298;52.560;13.508;2022-08-01T02:35:46;12.93;;;12.32;;
13733;SDS011;43298;52.560;13.508;2022-08-01T02:38:16;11.23;;;10.73;;
13733;SDS011;43298;52.560;13.508;2022-08-01T02:40:46;12.90;;;12.23;;
13733;SDS011;43298;52.560;13.508;2022-08-01T02:43:15;14.80;;;14.10;;
13733;SDS011;43298;52.560;13.508;2022-08-01T02:45:47;17.20;;;16.30;;
13733;SDS011;43298;52.560;13.508;2022-08-01T02:48:17;13.32;;;12.73;;
13733;SDS011;43298;52.560;13.508;2022-08-01T02:50:46;13.98;;;13.38;;
13733;SDS011;43298;52.560;13.508;2022-08-01T02:53:14;13.30;;;12.60;;
13733;SDS011;43298;52.560;13.508;2022-08-01T02:55:45;12.70;;;12.13;;
13733;SDS011;43298;52.560;13.508;2022-08-01T02:58:12;11.60;;;11.07;;
13733;SDS011;43298;52.560;13.508;2022-08-01T03:00:42;11.95;;;11.43;;
13733;SDS011;43298;52.560;13.508;2022-08-01T03:03:09;11.32;;;10.73;;
13733;SDS011;43298;52.560;13.508;2022-08-01T03:05:37;12.43;;;11.85;;
13733;SDS011;43298;52.560;13.508;2022-08-01T03:08:07;16.75;;;16.05;;
13733;SDS011;43298;52.560;13.508;2022-08-01T03:10:36;11.73;;;11.23;;
13733;SDS011;43298;52.560;13.508;2022-08-01T03:13:04;10.95;;;10.45;;
13733;SDS011;43298;52.560;13.508;2022-08-01T03:15:34;19.02;;;18.23;;
13733;SDS011;43298;52.560;13.508;2022-08-01T03:18:04;14.35;;;13.75;;
13733;SDS011;43298;52.560;13.508;2022-08-01T03:20:33;11.70;;;11.15;;
13733;SDS011;43298;52.560;13.508;2022-08-01T03:23:01;12.80;;;12.25;;
13733;SDS011;43298;52.560;13.508;2022-08-01T03:25:32;11.30;;;10.82;;
13733;SDS011;43298;52.560;13.508;2022-08-01T03:28:03;13.27;;;12.68;;
13733;SDS011;43298;52.560;13.508;2022-08-01T03:30:31;11.55;;;11.05;;
13733;SDS011;43298;52.560;13.508;2022-08-01T03:32:58;10.85;;;10.35;;
13733;SDS011;43298;52.560;13.508;2022-08-01T03:35:29;10.00;;;9.50;;
13733;SDS011;43298;52.560;13.508;2022-08-01T03:37:59;10.18;;;9.68;;
13733;SDS011;43298;52.560;13.508;2022-08-01T03:41:11;10.70;;;10.20;;
13733;SDS011;43298;52.560;13.508;2022-08-01T03:43:27;12.80;;;11.85;;
13733;SDS011;43298;52.560;13.508;2022-08-01T03:46:07;12.60;;;12.00;;
13733;SDS011;43298;52.560;13.508;2022-08-01T03:48:42;10.38;;;9.88;;
13733;SDS011;43298;52.560;13.508;2022-08-01T03:51:13;9.55;;;9.00;;
13733;SDS011;43298;52.560;13.508;2022-08-01T03:53:41;9.05;;;8.65;;
13733;SDS011;43298;52.560;13.508;2022-08-01T03:56:09;10.27;;;9.68;;
13733;SDS011;43298;52.560;13.508;2022-08-01T03:58:43;10.38;;;9.88;;
13733;SDS011;43298;52.560;13.508;2022-08-01T04:01:10;9.57;;;9.18;;
13733;SDS011;43298;52.560;13.508;2022-08-01T04:03:36;9.38;;;8.98;;
13733;SDS011;43298;52.560;13.508;2022-08-01T04:06:05;11.20;;;10.70;;
13733;SDS011;43298;52.560;13.508;2022-08-01T04:08:39;15.52;;;14.82;;
13733;SDS011;43298;52.560;13.508;2022-08-01T04:11:07;13.80;;;13.20;;
13733;SDS011;43298;52.560;13.508;2022-08-01T04:13:34;14.50;;;13.90;;
13733;SDS011;43298;52.560;13.508;2022-08-01T04:16:00;12.68;;;12.13;;
13733;SDS011;43298;52.560;13.508;2022-08-01T04:18:26;12.70;;;12.00;;
13733;SDS011;43298;52.560;13.508;2022-08-01T04:20:52;11.60;;;11.10;;
13733;SDS011;43298;52.560;13.508;2022-08-01T04:23:18;11.10;;;10.60;;
13733;SDS011;43298;52.560;13.508;2022-08-01T04:25:49;11.85;;;11.32;;
13733;SDS011;43298;52.560;13.508;2022-08-01T04:28:16;14.75;;;14.05;;
13733;SDS011;43298;52.560;13.508;2022-08-01T04:30:45;14.63;;;14.02;;
13733;SDS011;43298;52.560;13.508;2022-08-01T04:33:15;15.50;;;14.30;;
13733;SDS011;43298;52.560;13.508;2022-08-01T04:35:43;16.02;;;15.32;;
13733;SDS011;43298;52.560;13.508;2022-08-01T04:38:12;19.83;;;17.95;;
13733;SDS011;43298;52.560;13.508;2022-08-01T04:40:42;17.35;;;16.45;;
13733;SDS011;43298;52.560;13.508;2022-08-01T04:43:10;14.85;;;14.25;;
13733;SDS011;43298;52.560;13.508;2022-08-01T04:45:36;15.07;;;14.35;;
13733;SDS011;43298;52.560;13.508;2022-08-01T04:48:04;15.45;;;14.65;;
13733;SDS011;43298;52.560;13.508;2022-08-01T04:50:31;16.10;;;15.35;;
13733;SDS011;43298;52.560;13.508;2022-08-01T04:52:57;14.88;;;14.23;;
13733;SDS011;43298;52.560;13.508;2022-08-01T04:55:23;12.73;;;12.13;;
13733;SDS011;43298;52.560;13.508;2022-08-01T04:57:49;13.68;;;13.07;;
13733;SDS011;43298;52.560;13.508;2022-08-01T05:00:15;12.32;;;11.77;;
13733;SDS011;43298;52.560;13.508;2022-08-01T05:02:43;33.83;;;32.05;;
13733;SDS011;43298;52.560;13.508;2022-08-01T05:05:10;12.95;;;12.25;;
13733;SDS011;43298;52.560;13.508;2022-08-01T05:07:35;12.25;;;11.75;;
13733;SDS011;43298;52.560;13.508;2022-08-01T05:10:04;13.70;;;13.02;;
13733;SDS011;43298;52.560;13.508;2022-08-01T05:12:31;13.23;;;12.63;;
13733;SDS011;43298;52.560;13.508;2022-08-01T05:14:58;13.68;;;12.80;;
13733;SDS011;43298;52.560;13.508;2022-08-01T05:17:24;13.98;;;13.27;;
13733;SDS011;43298;52.560;13.508;2022-08-01T05:19:50;12.98;;;12.30;;
13733;SDS011;43298;52.560;13.508;2022-08-01T05:22:16;13.45;;;12.80;;
13733;SDS011;43298;52.560;13.508;2022-08-01T05:24:42;14.13;;;13.38;;
13733;SDS011;43298;52.560;13.508;2022-08-01T05:27:08;15.93;;;15.05;;
13733;SDS011;43298;52.560;13.508;2022-08-01T05:29:34;12.48;;;11.88;;
13733;SDS011;43298;52.560;13.508;2022-08-01T05:32:00;13.13;;;12.50;;
13733;SDS011;43298;52.560;13.508;2022-08-01T05:34:27;15.40;;;14.63;;
13733;SDS011;43298;52.560;13.508;2022-08-01T05:36:53;12.63;;;11.82;;
13733;SDS011;43298;52.560;13.508;2022-08-01T05:39:19;13.35;;;12.55;;
13733;SDS011;43298;52.560;13.508;2022-08-01T05:41:44;12.48;;;11.88;;
13733;SDS011;43298;52.560;13.508;2022-08-01T05:44:10;13.32;;;12.52;;
13733;SDS011;43298;52.560;13.508;2022-08-01T05:46:36;14.45;;;13.60;;
13733;SDS011;43298;52.560;13.508;2022-08-01T05:49:02;12.38;;;11.77;;
13733;SDS011;43298;52.560;13.508;2022-08-01T05:51:30;14.70;;;13.82;;
13733;SDS011;43298;52.560;13.508;2022-08-01T05:53:56;14.48;;;13.55;;
13733;SDS011;43298;52.560;13.508;2022-08-01T05:56:23;13.55;;;12.90;;
13733;SDS011;43298;52.560;13.508;2022-08-01T05:58:49;13.30;;;12.70;;
13733;SDS011;43298;52.560;13.508;2022-08-01T06:01:16;12.63;;;12.02;;
13733;SDS011;43298;52.560;13.508;2022-08-01T06:03:43;13.45;;;12.75;;
13733;SDS011;43298;52.560;13.508;2022-08-01T06:06:09;13.95;;;13.35;;
13733;SDS011;43298;52.560;13.508;2022-08-01T06:08:34;14.20;;;13.60;;
13733;SDS011;43298;52.560;13.508;2022-08-01T06:11:01;16.38;;;15.65;;
13733;SDS011;43298;52.560;13.508;2022-08-01T06:13:26;15.70;;;15.00;;
13733;SDS011;43298;52.560;13.508;2022-08-01T06:15:52;18.50;;;17.60;;
13733;SDS011;43298;52.560;13.508;2022-08-01T06:18:19;15.25;;;14.52;;
13733;SDS011;43298;52.560;13.508;2022-08-01T06:20:45;15.82;;;15.07;;
13733;SDS011;43298;52.560;13.508;2022-08-01T06:23:11;16.85;;;16.10;;
13733;SDS011;43298;52.560;13.508;2022-08-01T06:25:38;15.27;;;14.57;;
13733;SDS011;43298;52.560;13.508;2022-08-01T06:28:04;15.75;;;14.95;;
13733;SDS011;43298;52.560;13.508;2022-08-01T06:30:29;14.98;;;14.27;;
13733;SDS011;43298;52.560;13.508;2022-08-01T06:32:55;18.67;;;17.77;;
13733;SDS011;43298;52.560;13.508;2022-08-01T06:35:23;17.58;;;16.88;;
13733;SDS011;43298;52.560;13.508;2022-08-01T06:37:49;17.80;;;17.00;;
13733;SDS011;43298;52.560;13.508;2022-08-01T06:40:15;16.70;;;16.00;;
13733;SDS011;43298;52.560;13.508;2022-08-01T06:42:41;16.63;;;15.73;;
13733;SDS011;43298;52.560;13.508;2022-08-01T06:45:08;15.80;;;15.10;;
13733;SDS011;43298;52.560;13.508;2022-08-01T06:47:36;16.85;;;15.98;;
13733;SDS011;43298;52.560;13.508;2022-08-01T06:50:04;16.75;;;16.05;;
13733;SDS011;43298;52.560;13.508;2022-08-01T06:52:32;13.23;;;12.63;;
13733;SDS011;43298;52.560;13.508;2022-08-01T06:54:58;11.63;;;11.13;;
13733;SDS011;43298;52.560;13.508;2022-08-01T06:57:24;12.18;;;11.68;;
13733;SDS011;43298;52.560;13.508;2022-08-01T06:59:50;11.93;;;11.43;;
13733;SDS011;43298;52.560;13.508;2022-08-01T07:02:17;12.30;;;11.80;;
13733;SDS011;43298;52.560;13.508;2022-08-01T07:04:43;15.30;;;14.60;;
13733;SDS011;43298;52.560;13.508;2022-08-01T07:07:08;15.20;;;14.35;;
13733;SDS011;43298;52.560;13.508;2022-08-01T07:09:34;12.48;;;11.88;;
13733;SDS011;43298;52.560;13.508;2022-08-01T07:12:01;14.20;;;13.32;;
13733;SDS011;43298;52.560;13.508;2022-08-01T07:14:29;11.73;;;11.13;;
13733;SDS011;43298;52.560;13.508;2022-08-01T07:16:54;11.60;;;11.10;;
13733;SDS011;43298;52.560;13.508;2022-08-01T07:19:20;11.98;;;11.48;;
13733;SDS011;43298;52.560;13.508;2022-08-01T07:21:46;11.65;;;11.15;;
13733;SDS011;43298;52.560;13.508;2022-08-01T07:24:12;12.13;;;11.63;;
13733;SDS011;43298;52.560;13.508;2022-08-01T07:26:43;14.43;;;13.82;;
13733;SDS011;43298;52.560;13.508;2022-08-01T07:29:11;16.48;;;15.68;;
13733;SDS011;43298;52.560;13.508;2022-08-01T07:31:37;19.10;;;18.23;;
13733;SDS011;43298;52.560;13.508;2022-08-01T07:34:03;18.42;;;17.63;;
13733;SDS011;43298;52.560;13.508;2022-08-01T07:36:29;18.50;;;17.65;;
13733;SDS011;43298;52.560;13.508;2022-08-01T07:38:55;16.40;;;15.70;;
13733;SDS011;43298;52.560;13.508;2022-08-01T07:41:21;14.27;;;13.68;;
13733;SDS011;43298;52.560;13.508;2022-08-01T07:43:47;14.52;;;13.85;;
13733;SDS011;43298;52.560;13.508;2022-08-01T07:46:14;14.48;;;13.88;;
13733;SDS011;43298;52.560;13.508;2022-08-01T07:48:41;13.40;;;12.80;;
13733;SDS011;43298;52.560;13.508;2022-08-01T07:51:07;13.35;;;12.65;;
13733;SDS011;43298;52.560;13.508;2022-08-01T07:53:35;14.35;;;13.75;;
13733;SDS011;43298;52.560;13.508;2022-08-01T07:56:01;16.38;;;15.68;;
13733;SDS011;43298;52.560;13.508;2022-08-01T07:58:29;12.90;;;12.30;;
13733;SDS011;43298;52.560;13.508;2022-08-01T08:00:55;11.93;;;11.43;;
13733;SDS011;43298;52.560;13.508;2022-08-01T08:03:21;12.68;;;12.15;;
13733;SDS011;43298;52.560;13.508;2022-08-01T08:05:47;14.50;;;13.85;;
13733;SDS011;43298;52.560;13.508;2022-08-01T08:08:13;12.50;;;11.93;;
13733;SDS011;43298;52.560;13.508;2022-08-01T08:10:40;13.25;;;12.65;;
13733;SDS011;43298;52.560;13.508;2022-08-01T08:13:06;13.43;;;12.82;;
13733;SDS011;43298;52.560;13.508;2022-08-01T08:15:32;12.60;;;12.00;;
13733;SDS011;43298;52.560;13.508;2022-08-01T08:17:58;13.95;;;13.35;;
13733;SDS011;43298;52.560;13.508;2022-08-01T08:20:23;15.82;;;15.13;;
13733;SDS011;43298;52.560;13.508;2022-08-01T08:22:54;61.33;;;22.90;;
13733;SDS011;43298;52.560;13.508;2022-08-01T08:25:23;13.02;;;12.30;;
13733;SDS011;43298;52.560;13.508;2022-08-01T08:27:49;11.57;;;11.07;;
13733;SDS011;43298;52.560;13.508;2022-08-01T08:30:15;13.13;;;12.52;;
13733;SDS011;43298;52.560;13.508;2022-08-01T08:32:41;12.38;;;11.88;;
13733;SDS011;43298;52.560;13.508;2022-08-01T08:35:07;12.65;;;12.15;;
13733;SDS011;43298;52.560;13.508;2022-08-01T08:37:34;11.55;;;11.05;;
13733;SDS011;43298;52.560;13.508;2022-08-01T08:40:01;12.32;;;11.73;;
13733;SDS011;43298;52.560;13.508;2022-08-01T08:42:29;20.25;;;19.17;;
13733;SDS011;43298;52.560;13.508;2022-08-01T08:44:55;11.90;;;11.30;;
13733;SDS011;43298;52.560;13.508;2022-08-01T08:47:21;13.50;;;12.90;;
13733;SDS011;43298;52.560;13.508;2022-08-01T08:49:50;22.17;;;21.23;;
13733;SDS011;43298;52.560;13.508;2022-08-01T08:52:20;18.10;;;17.35;;
13733;SDS011;43298;52.560;13.508;2022-08-01T08:54:46;14.88;;;14.23;;
13733;SDS011;43298;52.560;13.508;2022-08-01T08:57:15;14.50;;;13.90;;
13733;SDS011;43298;52.560;13.508;2022-08-01T08:59:43;17.58;;;16.77;;
13733;SDS011;43298;52.560;13.508;2022-08-01T09:02:10;16.05;;;15.35;;
13733;SDS011;43298;52.560;13.508;2022-08-01T09:04:37;17.40;;;16.60;;
13733;SDS011;43298;52.560;13.508;2022-08-01T09:07:05;16.60;;;15.90;;
13733;SDS011;43298;52.560;13.508;2022-08-01T09:09:31;15.10;;;14.30;;
13733;SDS011;43298;52.560;13.508;2022-08-01T09:11:57;14.38;;;13.77;;
13733;SDS011;43298;52.560;13.508;2022-08-01T09:14:24;12.18;;;11.68;;
13733;SDS011;43298;52.560;13.508;2022-08-01T09:17:04;13.27;;;12.68;;
13733;SDS011;43298;52.560;13.508;2022-08-01T09:19:39;16.85;;;16.13;;
13733;SDS011;43298;52.560;13.508;2022-08-01T09:22:12;19.63;;;18.83;;
13733;SDS011;43298;52.560;13.508;2022-08-01T09:27:35;18.13;;;17.40;;
13733;SDS011;43298;52.560;13.508;2022-08-01T09:30:14;17.02;;;16.30;;
13733;SDS011;43298;52.560;13.508;2022-08-01T09:35:29;14.57;;;13.98;;
13733;SDS011;43298;52.560;13.508;2022-08-01T09:38:11;12.75;;;12.25;;
13733;SDS011;43298;52.560;13.508;2022-08-01T09:40:46;13.90;;;13.30;;
13733;SDS011;43298;52.560;13.508;2022-08-01T09:43:20;21.17;;;20.27;;
13733;SDS011;43298;52.560;13.508;2022-08-01T09:45:48;21.17;;;20.25;;
13733;SDS011;43298;52.560;13.508;2022-08-01T09:48:14;16.60;;;15.90;;
13733;SDS011;43298;52.560;13.508;2022-08-01T09:50:42;16.38;;;15.68;;
13733;SDS011;43298;52.560;13.508;2022-08-01T09:53:10;13.05;;;12.52;;
13733;SDS011;43298;52.560;13.508;2022-08-01T09:55:36;20.15;;;19.30;;
13733;SDS011;43298;52.560;13.508;2022-08-01T09:58:04;18.85;;;18.05;;
13733;SDS011;43298;52.560;13.508;2022-08-01T10:00:31;18.92;;;18.13;;
13733;SDS011;43298;52.560;13.508;2022-08-01T10:02:57;14.38;;;13.48;;
13733;SDS011;43298;52.560;13.508;2022-08-01T10:05:34;19.17;;;18.33;;
13733;SDS011;43298;52.560;13.508;2022-08-01T10:08:01;21.20;;;20.25;;
13733;SDS011;43298;52.560;13.508;2022-08-01T10:10:30;21.45;;;20.55;;
13733;SDS011;43298;52.560;13.508;2022-08-01T10:12:57;21.27;;;20.38;;
13733;SDS011;43298;52.560;13.508;2022-08-01T10:15:25;19.27;;;18.48;;
13733;SDS011;43298;52.560;13.508;2022-08-01T10:17:56;18.33;;;17.55;;
13733;SDS011;43298;52.560;13.508;2022-08-01T10:20:26;18.40;;;17.60;;
13733;SDS011;43298;52.560;13.508;2022-08-01T10:22:54;18.60;;;17.65;;
13733;SDS011;43298;52.560;13.508;2022-08-01T10:25:29;17.30;;;16.52;;
13733;SDS011;43298;52.560;13.508;2022-08-01T10:28:04;19.90;;;18.95;;
13733;SDS011;43298;52.560;13.508;2022-08-01T10:30:41;15.02;;;14.32;;
13733;SDS011;43298;52.560;13.508;2022-08-01T10:33:08;24.95;;;23.80;;
13733;SDS011;43298;52.560;13.508;2022-08-01T10:35:35;18.25;;;17.48;;
13733;SDS011;43298;52.560;13.508;2022-08-01T10:38:03;17.45;;;16.65;;
13733;SDS011;43298;52.560;13.508;2022-08-01T10:40:28;14.90;;;14.30;;
13733;SDS011;43298;52.560;13.508;2022-08-01T10:42:55;14.13;;;13.52;;
13733;SDS011;43298;52.560;13.508;2022-08-01T10:45:21;13.93;;;13.32;;
13733;SDS011;43298;52.560;13.508;2022-08-01T10:50:32;18.75;;;17.95;;
13733;SDS011;43298;52.560;13.508;2022-08-01T10:53:21;18.02;;;17.23;;
13733;SDS011;43298;52.560;13.508;2022-08-01T11:01:20;14.25;;;13.65;;
13733;SDS011;43298;52.560;13.508;2022-08-01T11:08:58;23.45;;;22.30;;
13733;SDS011;43298;52.560;13.508;2022-08-01T11:11:29;18.25;;;17.15;;
13733;SDS011;43298;52.560;13.508;2022-08-01T11:14:05;16.70;;;16.00;;
13733;SDS011;43298;52.560;13.508;2022-08-01T11:16:38;17.00;;;16.20;;
13733;SDS011;43298;52.560;13.508;2022-08-01T11:19:06;24.65;;;16.90;;
13733;SDS011;43298;52.560;13.508;2022-08-01T11:29:42;21.55;;;20.60;;
13733;SDS011;43298;52.560;13.508;2022-08-01T11:32:24;35.95;;;19.75;;
13733;SDS011;43298;52.560;13.508;2022-08-01T11:34:52;16.65;;;15.63;;
13733;SDS011;43298;52.560;13.508;2022-08-01T11:37:24;14.57;;;13.40;;
13733;SDS011;43298;52.560;13.508;2022-08-01T11:42:47;15.18;;;14.32;;
13733;SDS011;43298;52.560;13.508;2022-08-01T11:45:16;14.20;;;13.60;;
13733;SDS011;43298;52.560;13.508;2022-08-01T11:47:48;13.02;;;12.48;;
13733;SDS011;43298;52.560;13.508;2022-08-01T11:50:29;18.65;;;17.85;;
13733;SDS011;43298;52.560;13.508;2022-08-01T11:53:01;17.85;;;17.05;;
13733;SDS011;43298;52.560;13.508;2022-08-01T11:55:30;17.70;;;17.00;;
13733;SDS011;43298;52.560;13.508;2022-08-01T12:00:28;15.68;;;15.02;;
13733;SDS011;43298;52.560;13.508;2022-08-01T12:02:56;13.10;;;12.60;;
13733;SDS011;43298;52.560;13.508;2022-08-01T12:05:25;20.95;;;19.42;;
13733;SDS011;43298;52.560;13.508;2022-08-01T12:07:52;18.48;;;17.67;;
13733;SDS011;43298;52.560;13.508;2022-08-01T12:10:20;16.45;;;15.35;;
13733;SDS011;43298;52.560;13.508;2022-08-01T12:12:58;15.30;;;14.70;;
13733;SDS011;43298;52.560;13.508;2022-08-01T12:15:29;14.70;;;14.10;;
13733;SDS011;43298;52.560;13.508;2022-08-01T12:18:03;13.25;;;12.65;;
13733;SDS011;43298;52.560;13.508;2022-08-01T12:20:33;12.80;;;12.30;;
13733;SDS011;43298;52.560;13.508;2022-08-01T12:23:05;13.70;;;13.13;;
13733;SDS011;43298;52.560;13.508;2022-08-01T12:25:37;12.00;;;11.50;;
13733;SDS011;43298;52.560;13.508;2022-08-01T12:28:09;13.18;;;12.57;;
13733;SDS011;43298;52.560;13.508;2022-08-01T12:30:38;13.55;;;12.95;;
13733;SDS011;43298;52.560;13.508;2022-08-01T12:33:08;13.70;;;12.95;;
13733;SDS011;43298;52.560;13.508;2022-08-01T12:35:35;14.88;;;14.27;;
13733;SDS011;43298;52.560;13.508;2022-08-01T12:38:21;16.38;;;15.68;;
13733;SDS011;43298;52.560;13.508;2022-08-01T12:40:49;17.20;;;16.48;;
13733;SDS011;43298;52.560;13.508;2022-08-01T12:43:19;17.92;;;17.15;;
13733;SDS011;43298;52.560;13.508;2022-08-01T12:45:47;18.00;;;17.20;;
13733;SDS011;43298;52.560;13.508;2022-08-01T12:48:15;15.40;;;14.80;;
13733;SDS011;43298;52.560;13.508;2022-08-01T12:50:49;32.90;;;16.10;;
13733;SDS011;43298;52.560;13.508;2022-08-01T12:53:17;17.23;;;16.52;;
13733;SDS011;43298;52.560;13.508;2022-08-01T12:55:50;19.27;;;18.48;;
13733;SDS011;43298;52.560;13.508;2022-08-01T12:58:19;17.25;;;16.52;;
13733;SDS011;43298;52.560;13.508;2022-08-01T13:00:47;16.38;;;15.68;;
13733;SDS011;43298;52.560;13.508;2022-08-01T13:03:15;14.73;;;14.13;;
13733;SDS011;43298;52.560;13.508;2022-08-01T13:05:54;16.17;;;15.48;;
13733;SDS011;43298;52.560;13.508;2022-08-01T13:08:23;16.65;;;15.95;;
13733;SDS011;43298;52.560;13.508;2022-08-01T13:11:00;16.20;;;15.50;;
13733;SDS011;43298;52.560;13.508;2022-08-01T13:13:37;15.68;;;14.73;;
13733;SDS011;43298;52.560;13.508;2022-08-01T13:16:12;16.55;;;15.85;;
13733;SDS011;43298;52.560;13.508;2022-08-01T13:18:39;23.23;;;22.23;;
13733;SDS011;43298;52.560;13.508;2022-08-01T13:21:18;14.35;;;13.75;;
13733;SDS011;43298;52.560;13.508;2022-08-01T13:24:05;18.08;;;17.27;;
13733;SDS011;43298;52.560;13.508;2022-08-01T13:26:40;16.25;;;15.55;;
13733;SDS011;43298;52.560;13.508;2022-08-01T13:29:21;17.13;;;16.42;;
13733;SDS011;43298;52.560;13.508;2022-08-01T13:31:55;18.65;;;17.85;;
13733;SDS011;43298;52.560;13.508;2022-08-01T13:34:32;17.60;;;16.80;;
13733;SDS011;43298;52.560;13.508;2022-08-01T13:36:59;25.38;;;24.27;;
13733;SDS011;43298;52.560;13.508;2022-08-01T13:39:28;16.85;;;16.10;;
13733;SDS011;43298;52.560;13.508;2022-08-01T13:42:13;15.57;;;14.93;;
13733;SDS011;43298;52.560;13.508;2022-08-01T13:44:40;16.48;;;15.77;;
13733;SDS011;43298;52.560;13.508;2022-08-01T13:47:10;15.88;;;15.18;;
13733;SDS011;43298;52.560;13.508;2022-08-01T13:49:36;15.55;;;14.90;;
13733;SDS011;43298;52.560;13.508;2022-08-01T13:52:02;15.32;;;14.70;;
13733;SDS011;43298;52.560;13.508;2022-08-01T13:54:31;16.23;;;15.52;;
13733;SDS011;43298;52.560;13.508;2022-08-01T13:56:57;15.52;;;14.82;;
13733;SDS011;43298;52.560;13.508;2022-08-01T13:59:23;15.13;;;14.52;;
13733;SDS011;43298;52.560;13.508;2022-08-01T14:01:49;13.90;;;13.30;;
13733;SDS011;43298;52.560;13.508;2022-08-01T14:04:14;12.77;;;12.18;;
13733;SDS011;43298;52.560;13.508;2022-08-01T14:06:40;13.00;;;12.40;;
13733;SDS011;43298;52.560;13.508;2022-08-01T14:09:07;12.73;;;12.23;;
13733;SDS011;43298;52.560;13.508;2022-08-01T14:11:32;11.65;;;11.15;;
13733;SDS011;43298;52.560;13.508;2022-08-01T14:13:59;13.45;;;12.88;;
13733;SDS011;43298;52.560;13.508;2022-08-01T14:16:24;13.75;;;13.15;;
13733;SDS011;43298;52.560;13.508;2022-08-01T14:18:50;14.80;;;14.10;;
13733;SDS011;43298;52.560;13.508;2022-08-01T14:21:16;15.45;;;14.85;;
13733;SDS011;43298;52.560;13.508;2022-08-01T14:23:42;12.80;;;12.27;;
13733;SDS011;43298;52.560;13.508;2022-08-01T14:26:08;14.93;;;14.23;;
13733;SDS011;43298;52.560;13.508;2022-08-01T14:28:35;15.93;;;15.23;;
13733;SDS011;43298;52.560;13.508;2022-08-01T14:31:02;18.92;;;18.13;;
13733;SDS011;43298;52.560;13.508;2022-08-01T14:33:30;24.55;;;23.55;;
13733;SDS011;43298;52.560;13.508;2022-08-01T14:35:56;20.85;;;19.98;;
13733;SDS011;43298;52.560;13.508;2022-08-01T14:38:22;17.70;;;17.00;;
13733;SDS011;43298;52.560;13.508;2022-08-01T14:40:48;15.35;;;14.75;;
13733;SDS011;43298;52.560;13.508;2022-08-01T14:43:16;15.18;;;14.57;;
13733;SDS011;43298;52.560;13.508;2022-08-01T14:45:46;16.63;;;15.93;;
13733;SDS011;43298;52.560;13.508;2022-08-01T14:48:15;19.90;;;19.10;;
13733;SDS011;43298;52.560;13.508;2022-08-01T14:50:42;29.75;;;28.50;;
13733;SDS011;43298;52.560;13.508;2022-08-01T14:53:08;26.13;;;25.02;;
13733;SDS011;43298;52.560;13.508;2022-08-01T14:55:33;22.60;;;21.60;;
13733;SDS011;43298;52.560;13.508;2022-08-01T14:57:59;22.35;;;21.45;;
13733;SDS011;43298;52.560;13.508;2022-08-01T15:00:25;24.10;;;23.10;;
13733;SDS011;43298;52.560;13.508;2022-08-01T15:02:51;21.75;;;20.85;;
13733;SDS011;43298;52.560;13.508;2022-08-01T15:05:16;20.17;;;19.35;;
13733;SDS011;43298;52.560;13.508;2022-08-01T15:07:42;22.63;;;21.65;;
13733;SDS011;43298;52.560;13.508;2022-08-01T15:10:08;22.08;;;21.15;;
13733;SDS011;43298;52.560;13.508;2022-08-01T15:12:35;27.30;;;26.15;;